createdAt,value
2018-09-21T00:02:24.916Z,16.30
2018-09-21T00:04:53.223Z,15.00
2018-09-21T00:07:21.489Z,16.30
2018-09-21T00:09:49.773Z,16.53
2018-09-21T00:12:18.099Z,15.17
2018-09-21T00:14:48.476Z,15.53
2018-09-21T00:17:16.737Z,17.13
2018-09-21T00:19:44.997Z,16.73
2018-09-21T00:22:13.236Z,17.53
2018-09-21T00:24:43.720Z,18.37
2018-09-21T00:27:12.610Z,16.17
2018-09-21T00:29:41.896Z,17.10
2018-09-21T00:32:10.310Z,16.27
2018-09-21T00:34:38.592Z,17.03
2018-09-21T00:37:06.832Z,16.20
2018-09-21T00:39:35.136Z,17.30
2018-09-21T00:42:03.419Z,16.33
2018-09-21T00:44:31.640Z,16.57
2018-09-21T00:46:59.920Z,16.20
2018-09-21T00:49:28.207Z,16.13
2018-09-21T00:51:56.505Z,16.43
2018-09-21T00:54:25.811Z,16.60
2018-09-21T00:56:55.012Z,15.97
2018-09-21T00:59:23.258Z,15.47
2018-09-21T01:01:51.708Z,15.57
2018-09-21T01:04:22.127Z,16.57
2018-09-21T01:06:50.449Z,16.87
2018-09-21T01:09:18.675Z,18.90
2018-09-21T01:11:46.919Z,16.87
2018-09-21T01:14:15.175Z,18.17
2018-09-21T01:16:43.605Z,18.37
2018-09-21T01:19:11.838Z,18.77
2018-09-21T01:21:40.145Z,17.20
2018-09-21T01:24:08.403Z,18.43
2018-09-21T01:26:36.646Z,17.67
2018-09-21T01:29:05.029Z,17.63
2018-09-21T01:31:33.363Z,17.57
2018-09-21T01:34:01.639Z,18.07
2018-09-21T01:36:29.950Z,18.50
2018-09-21T01:38:58.277Z,18.53
2018-09-21T01:41:26.618Z,17.40
2018-09-21T01:43:54.879Z,17.67
2018-09-21T01:46:23.115Z,17.47
2018-09-21T01:48:53.686Z,18.10
2018-09-21T01:51:22.001Z,16.93
2018-09-21T01:53:50.811Z,18.37
2018-09-21T01:56:19.082Z,18.00
2018-09-21T01:58:47.379Z,18.47
2018-09-21T02:01:15.647Z,19.00
2018-09-21T02:03:43.899Z,18.80
2018-09-21T02:06:12.182Z,18.40
2018-09-21T02:08:40.454Z,18.10
2018-09-21T02:11:08.786Z,20.10
2018-09-21T02:13:37.078Z,20.27
2018-09-21T02:16:05.367Z,19.40
2018-09-21T02:18:33.680Z,21.17
2018-09-21T02:21:02.059Z,19.30
2018-09-21T02:23:30.369Z,20.10
2018-09-21T02:25:58.645Z,19.57
2018-09-21T02:28:31.028Z,19.23
2018-09-21T02:31:00.073Z,19.80
2018-09-21T02:33:28.909Z,19.83
2018-09-21T02:35:57.164Z,19.97
2018-09-21T02:38:25.522Z,20.27
2018-09-21T02:40:53.782Z,19.33
2018-09-21T02:43:22.098Z,19.30
2018-09-21T02:45:50.340Z,19.37
2018-09-21T02:48:18.603Z,20.20
2018-09-21T02:50:46.885Z,20.00
2018-09-21T02:53:15.157Z,19.03
2018-09-21T02:55:43.463Z,18.87
2018-09-21T02:58:11.779Z,21.23
2018-09-21T03:00:40.549Z,19.00
2018-09-21T03:03:08.903Z,20.80
2018-09-21T03:05:37.196Z,19.37
2018-09-21T03:08:12.822Z,20.90
2018-09-21T03:10:41.064Z,19.90
2018-09-21T03:13:09.445Z,21.80
2018-09-21T03:15:37.667Z,20.43
2018-09-21T03:18:06.027Z,20.57
2018-09-21T03:20:34.319Z,20.93
2018-09-21T03:23:02.579Z,21.13
2018-09-21T03:25:31.648Z,21.80
2018-09-21T03:27:59.904Z,22.83
2018-09-21T03:30:28.164Z,24.63
2018-09-21T03:32:56.449Z,23.70
2018-09-21T03:35:24.830Z,25.57
2018-09-21T03:37:53.176Z,24.70
2018-09-21T03:40:21.426Z,25.27
2018-09-21T03:42:49.840Z,26.13
2018-09-21T03:45:18.160Z,28.07
2018-09-21T03:47:46.451Z,28.03
2018-09-21T03:50:15.726Z,27.10
2018-09-21T03:52:44.876Z,27.70
2018-09-21T03:55:15.155Z,28.40
2018-09-21T03:57:43.444Z,28.93
2018-09-21T04:00:11.694Z,28.83
2018-09-21T04:02:39.945Z,27.57
2018-09-21T04:05:08.248Z,28.67
2018-09-21T04:07:36.500Z,28.80
2018-09-21T04:10:05.546Z,28.47
2018-09-21T04:12:33.778Z,28.07
2018-09-21T04:15:02.020Z,25.97
2018-09-21T04:17:30.303Z,26.60
2018-09-21T04:19:58.577Z,28.53
2018-09-21T04:22:26.883Z,28.83
2018-09-21T04:25:01.524Z,29.33
2018-09-21T04:27:29.932Z,29.87
2018-09-21T04:29:58.229Z,28.67
2018-09-21T04:32:26.509Z,28.90
2018-09-21T04:34:54.832Z,28.77
2018-09-21T04:37:23.070Z,28.27
2018-09-21T04:39:51.393Z,28.13
2018-09-21T04:42:19.659Z,28.43
2018-09-21T04:44:47.959Z,28.53
2018-09-21T04:47:16.221Z,28.10
2018-09-21T04:49:44.969Z,28.13
2018-09-21T04:52:13.293Z,27.77
2018-09-21T04:54:41.541Z,27.93
2018-09-21T04:57:09.851Z,29.27
2018-09-21T04:59:38.092Z,28.70
2018-09-21T05:02:08.448Z,29.63
2018-09-21T05:04:38.088Z,28.90
2018-09-21T05:07:06.566Z,30.23
2018-09-21T05:09:34.824Z,29.23
2018-09-21T05:12:07.089Z,28.67
2018-09-21T05:14:35.348Z,28.13
2018-09-21T05:17:03.647Z,29.03
2018-09-21T05:19:31.917Z,28.73
2018-09-21T05:22:00.245Z,27.13
2018-09-21T05:24:28.495Z,28.23
2018-09-21T05:26:56.736Z,28.93
2018-09-21T05:29:25.078Z,28.60
2018-09-21T05:31:53.350Z,28.27
2018-09-21T05:34:25.906Z,27.23
2018-09-21T05:36:54.288Z,28.90
2018-09-21T05:39:22.554Z,28.57
2018-09-21T05:41:50.809Z,27.27
2018-09-21T05:44:19.048Z,28.53
2018-09-21T05:46:47.333Z,29.13
2018-09-21T05:49:15.599Z,26.53
2018-09-21T05:51:43.892Z,27.10
2018-09-21T05:54:12.154Z,27.93
2018-09-21T05:56:41.183Z,28.27
2018-09-21T05:59:09.498Z,26.33
2018-09-21T06:01:41.815Z,26.70
2018-09-21T06:04:10.168Z,27.63
2018-09-21T06:06:38.491Z,26.47
2018-09-21T06:09:08.235Z,26.47
2018-09-21T06:11:36.617Z,26.80
2018-09-21T06:14:04.947Z,26.27
2018-09-21T06:16:33.200Z,25.60
2018-09-21T06:19:01.460Z,24.83
2018-09-21T06:21:29.820Z,24.33
2018-09-21T06:23:58.096Z,23.60
2018-09-21T06:26:26.364Z,23.23
2018-09-21T06:28:54.721Z,22.80
2018-09-21T06:31:25.016Z,23.67
2018-09-21T06:33:53.271Z,21.77
2018-09-21T06:36:22.181Z,22.40
2018-09-21T06:38:50.516Z,22.10
2018-09-21T06:41:18.887Z,22.20
2018-09-21T06:43:47.244Z,20.97
2018-09-21T06:46:15.448Z,21.13
2018-09-21T06:48:43.744Z,20.23
2018-09-21T06:51:11.939Z,20.90
2018-09-21T06:53:40.211Z,20.03
2018-09-21T06:56:08.430Z,20.40
2018-09-21T06:58:36.664Z,20.43
2018-09-21T07:01:04.937Z,18.83
2018-09-21T07:03:33.163Z,19.03
2018-09-21T07:06:01.526Z,18.33
2018-09-21T07:08:29.759Z,18.80
2018-09-21T07:10:58.015Z,19.77
2018-09-21T07:13:26.257Z,19.23
2018-09-21T07:15:54.488Z,19.53
2018-09-21T07:18:22.812Z,18.67
2018-09-21T07:20:51.026Z,19.30
2018-09-21T07:23:19.331Z,18.50
2018-09-21T07:25:47.535Z,18.13
2018-09-21T07:28:15.798Z,20.47
2018-09-21T07:30:44.012Z,17.70
2018-09-21T07:33:12.223Z,18.37
2018-09-21T07:35:40.518Z,18.70
2018-09-21T07:38:08.724Z,17.80
2018-09-21T07:40:36.987Z,17.90
2018-09-21T07:43:05.272Z,18.20
2018-09-21T07:45:33.496Z,17.57
2018-09-21T07:48:01.827Z,17.70
2018-09-21T07:50:30.058Z,16.27
2018-09-21T07:52:58.260Z,15.73
2018-09-21T07:55:26.516Z,15.57
2018-09-21T07:57:54.712Z,14.27
2018-09-21T08:00:22.984Z,14.93
2018-09-21T08:02:51.224Z,15.07
2018-09-21T08:05:25.672Z,15.03
2018-09-21T08:07:53.879Z,14.93
2018-09-21T08:10:22.190Z,14.10
2018-09-21T08:12:50.455Z,13.40
2018-09-21T08:15:18.650Z,12.90
2018-09-21T08:17:47.090Z,12.90
2018-09-21T08:20:16.074Z,11.67
2018-09-21T08:22:44.441Z,13.63
2018-09-21T08:25:12.739Z,11.67
2018-09-21T08:27:40.953Z,11.83
2018-09-21T08:30:09.237Z,11.93
2018-09-21T08:32:37.557Z,11.43
2018-09-21T08:35:05.876Z,11.27
2018-09-21T08:37:34.310Z,11.37
2018-09-21T08:40:02.612Z,11.00
2018-09-21T08:42:31.069Z,17.80
2018-09-21T08:44:59.862Z,11.70
2018-09-21T08:47:28.252Z,12.37
2018-09-21T08:49:56.631Z,12.33
2018-09-21T08:52:24.872Z,10.33
2018-09-21T08:54:53.183Z,11.23
2018-09-21T08:57:21.386Z,9.60
2018-09-21T08:59:49.725Z,12.03
2018-09-21T09:02:17.930Z,10.80
2018-09-21T09:04:46.193Z,10.60
2018-09-21T09:07:14.485Z,10.10
2018-09-21T09:09:42.791Z,10.63
2018-09-21T09:12:11.058Z,10.60
2018-09-21T09:14:39.344Z,9.33
2018-09-21T09:17:07.624Z,10.10
2018-09-21T09:19:36.007Z,10.30
2018-09-21T09:22:04.267Z,9.67
2018-09-21T09:24:32.549Z,9.90
2018-09-21T09:27:00.815Z,10.57
2018-09-21T09:29:29.164Z,10.03
2018-09-21T09:31:57.495Z,10.00
2018-09-21T09:34:25.752Z,9.87
2018-09-21T09:36:54.082Z,9.67
2018-09-21T09:39:22.312Z,9.83
2018-09-21T09:41:50.557Z,10.17
2018-09-21T09:44:18.839Z,11.37
2018-09-21T09:46:47.119Z,9.80
2018-09-21T09:49:15.377Z,9.87
2018-09-21T09:51:44.160Z,11.93
2018-09-21T09:54:12.448Z,10.83
2018-09-21T09:56:40.691Z,10.20
2018-09-21T09:59:08.901Z,11.67
2018-09-21T10:01:37.107Z,10.03
2018-09-21T10:04:05.315Z,10.23
2018-09-21T10:06:33.562Z,11.87
2018-09-21T10:09:01.786Z,11.30
2018-09-21T10:11:30.159Z,10.77
2018-09-21T10:13:58.362Z,10.07
2018-09-21T10:16:26.664Z,10.30
2018-09-21T10:18:54.891Z,9.37
2018-09-21T10:21:23.079Z,9.53
2018-09-21T10:23:51.275Z,9.17
2018-09-21T10:26:19.465Z,9.73
2018-09-21T10:28:47.969Z,8.80
2018-09-21T10:31:16.129Z,10.40
2018-09-21T10:33:44.442Z,10.17
2018-09-21T10:36:12.516Z,8.93
2018-09-21T10:38:40.735Z,8.67
2018-09-21T10:41:09.076Z,8.63
2018-09-21T10:43:37.464Z,8.40
2018-09-21T10:46:05.691Z,8.60
2018-09-21T10:48:33.887Z,8.23
2018-09-21T10:51:02.095Z,8.57
2018-09-21T10:53:30.302Z,8.20
2018-09-21T10:55:58.544Z,8.57
2018-09-21T10:58:26.884Z,8.37
2018-09-21T11:00:55.071Z,8.40
2018-09-21T11:03:23.358Z,8.05
2018-09-21T11:05:51.578Z,7.80
2018-09-21T11:08:19.859Z,7.90
2018-09-21T11:10:48.063Z,7.78
2018-09-21T11:13:16.424Z,7.30
2018-09-21T11:15:44.602Z,6.90
2018-09-21T11:18:12.837Z,6.92
2018-09-21T11:20:41.079Z,6.22
2018-09-21T11:23:09.271Z,6.22
2018-09-21T11:25:37.469Z,6.62
2018-09-21T11:28:05.667Z,7.05
2018-09-21T11:30:33.947Z,7.62
2018-09-21T11:33:02.738Z,10.03
2018-09-21T11:35:30.997Z,7.17
2018-09-21T11:37:59.215Z,7.83
2018-09-21T11:40:27.515Z,6.58
2018-09-21T11:42:55.747Z,7.45
2018-09-21T11:45:23.971Z,7.37
2018-09-21T11:47:52.232Z,7.08
2018-09-21T11:50:20.430Z,7.00
2018-09-21T11:52:48.667Z,7.25
2018-09-21T11:55:16.855Z,6.45
2018-09-21T11:57:45.086Z,6.30
2018-09-21T12:00:13.325Z,6.12
2018-09-21T12:02:41.744Z,6.40
2018-09-21T12:05:09.967Z,7.67
2018-09-21T12:07:39.299Z,6.30
2018-09-21T12:10:07.542Z,6.00
2018-09-21T12:12:35.948Z,6.10
2018-09-21T12:15:04.367Z,6.50
2018-09-21T12:17:32.603Z,6.50
2018-09-21T12:20:00.800Z,5.92
2018-09-21T12:22:29.052Z,6.05
2018-09-21T12:24:57.275Z,7.62
2018-09-21T12:27:25.466Z,6.53
2018-09-21T12:29:53.805Z,6.40
2018-09-21T12:32:22.005Z,6.08
2018-09-21T12:34:50.304Z,5.83
2018-09-21T12:37:18.519Z,5.85
2018-09-21T12:39:46.724Z,4.95
2018-09-21T12:42:14.923Z,5.58
2018-09-21T12:44:43.211Z,5.53
2018-09-21T12:47:11.452Z,5.53
2018-09-21T12:49:39.651Z,6.05
2018-09-21T12:52:08.018Z,5.90
2018-09-21T12:54:36.516Z,5.35
2018-09-21T12:57:04.796Z,6.20
2018-09-21T12:59:33.289Z,6.08
2018-09-21T13:02:01.672Z,5.92
2018-09-21T13:04:29.923Z,6.42
2018-09-21T13:06:58.119Z,5.75
2018-09-21T13:09:26.315Z,6.53
2018-09-21T13:11:54.513Z,5.37
2018-09-21T13:14:22.980Z,5.30
2018-09-21T13:16:51.215Z,5.65
2018-09-21T13:19:19.415Z,6.58
2018-09-21T13:21:47.655Z,6.58
2018-09-21T13:24:15.863Z,6.47
2018-09-21T13:26:44.133Z,5.55
2018-09-21T13:29:12.613Z,5.58
2018-09-21T13:31:40.835Z,5.93
2018-09-21T13:34:09.091Z,5.77
2018-09-21T13:36:37.295Z,6.03
2018-09-21T13:39:07.352Z,6.20
2018-09-21T13:41:35.583Z,5.97
2018-09-21T13:44:03.779Z,5.87
2018-09-21T13:46:32.031Z,5.87
2018-09-21T13:49:00.297Z,5.90
2018-09-21T13:51:28.576Z,6.03
2018-09-21T13:53:57.304Z,6.10
2018-09-21T13:56:26.085Z,6.53
2018-09-21T13:59:00.952Z,6.23
2018-09-21T14:01:31.285Z,6.17
2018-09-21T14:03:59.625Z,6.33
2018-09-21T14:06:27.900Z,6.67
2018-09-21T14:08:56.174Z,6.47
2018-09-21T14:11:24.528Z,6.67
2018-09-21T14:13:52.912Z,8.07
2018-09-21T14:16:21.173Z,7.80
2018-09-21T14:18:49.420Z,7.47
2018-09-21T14:21:17.815Z,7.73
2018-09-21T14:23:46.045Z,7.30
2018-09-21T14:26:14.277Z,7.97
2018-09-21T14:28:42.535Z,8.37
2018-09-21T14:31:10.799Z,8.07
2018-09-21T14:33:39.076Z,8.30
2018-09-21T14:36:07.403Z,8.17
2018-09-21T14:38:35.700Z,8.80
2018-09-21T14:41:08.037Z,9.80
2018-09-21T14:43:36.304Z,9.73
2018-09-21T14:46:04.499Z,9.00
2018-09-21T14:48:32.696Z,8.87
2018-09-21T14:51:00.939Z,9.07
2018-09-21T14:53:29.219Z,9.63
2018-09-21T14:55:57.423Z,8.73
2018-09-21T14:58:25.747Z,7.83
2018-09-21T15:00:53.947Z,8.03
2018-09-21T15:03:22.183Z,8.60
2018-09-21T15:05:50.417Z,9.03
2018-09-21T15:08:18.751Z,8.80
2018-09-21T15:10:47.106Z,11.93
2018-09-21T15:13:15.325Z,11.07
2018-09-21T15:15:43.531Z,10.20
2018-09-21T15:18:11.859Z,13.50
2018-09-21T15:20:40.046Z,9.13
2018-09-21T15:23:08.261Z,10.70
2018-09-21T15:25:36.459Z,10.43
2018-09-21T15:28:04.760Z,10.67
2018-09-21T15:30:32.971Z,9.73
2018-09-21T15:33:01.215Z,9.80
2018-09-21T15:35:29.415Z,11.07
2018-09-21T15:37:57.631Z,11.90
2018-09-21T15:40:25.911Z,10.23
2018-09-21T15:42:54.180Z,10.40
2018-09-21T15:45:22.431Z,10.90
2018-09-21T15:47:50.638Z,11.07
2018-09-21T15:50:18.895Z,12.40
2018-09-21T15:52:47.169Z,11.70
2018-09-21T15:55:15.461Z,11.13
2018-09-21T15:57:43.785Z,10.40
2018-09-21T16:00:12.029Z,9.13
2018-09-21T16:02:40.299Z,10.03
2018-09-21T16:05:08.552Z,9.03
2018-09-21T16:07:36.763Z,9.70
2018-09-21T16:10:04.999Z,14.83
2018-09-21T16:12:33.203Z,9.90
2018-09-21T16:15:01.413Z,10.23
2018-09-21T16:17:29.660Z,12.23
2018-09-21T16:19:57.904Z,11.13
2018-09-21T16:22:26.094Z,11.03
2018-09-21T16:24:54.455Z,14.33
2018-09-21T16:27:22.671Z,41.93
2018-09-21T16:29:50.914Z,9.03
2018-09-21T16:32:19.115Z,9.47
2018-09-21T16:34:47.493Z,9.93
2018-09-21T16:37:15.723Z,10.30
2018-09-21T16:39:43.911Z,10.20
2018-09-21T16:42:12.228Z,10.43
2018-09-21T16:44:40.512Z,10.77
2018-09-21T16:47:08.700Z,12.57
2018-09-21T16:49:37.047Z,12.80
2018-09-21T16:52:05.303Z,12.27
2018-09-21T16:54:33.531Z,11.23
2018-09-21T16:57:01.899Z,13.20
2018-09-21T16:59:30.079Z,13.60
2018-09-21T17:01:58.328Z,15.77
2018-09-21T17:04:26.594Z,23.87
2018-09-21T17:06:54.859Z,19.73
2018-09-21T17:09:23.055Z,11.63
2018-09-21T17:11:51.357Z,12.77
2018-09-21T17:14:19.584Z,22.07
2018-09-21T17:16:47.783Z,10.50
2018-09-21T17:19:16.193Z,23.33
2018-09-21T17:21:44.432Z,30.13
2018-09-21T17:24:12.627Z,12.03
2018-09-21T17:26:40.975Z,16.97
2018-09-21T17:29:09.171Z,14.83
2018-09-21T17:31:37.555Z,14.60
2018-09-21T17:34:05.809Z,12.10
2018-09-21T17:36:34.032Z,10.47
2018-09-21T17:39:02.284Z,14.97
2018-09-21T17:41:30.498Z,10.60
2018-09-21T17:43:58.687Z,30.47
2018-09-21T17:46:27.028Z,11.37
2018-09-21T17:48:55.255Z,10.30
2018-09-21T17:51:23.546Z,11.77
2018-09-21T17:53:51.743Z,10.37
2018-09-21T17:56:19.934Z,9.53
2018-09-21T17:58:48.216Z,9.80
2018-09-21T18:01:16.416Z,10.10
2018-09-21T18:03:44.619Z,10.63
2018-09-21T18:06:12.801Z,9.93
2018-09-21T18:08:41.823Z,10.47
2018-09-21T18:11:10.046Z,10.60
2018-09-21T18:13:38.247Z,10.97
2018-09-21T18:16:06.534Z,10.77
2018-09-21T18:18:34.783Z,11.47
2018-09-21T18:21:03.261Z,10.40
2018-09-21T18:23:31.751Z,13.07
2018-09-21T18:25:59.995Z,13.57
2018-09-21T18:28:28.225Z,14.37
2018-09-21T18:30:56.446Z,17.40
2018-09-21T18:33:24.675Z,12.90
2018-09-21T18:35:52.943Z,12.97
2018-09-21T18:38:21.161Z,37.57
2018-09-21T18:40:49.358Z,16.33
2018-09-21T18:43:17.567Z,11.40
2018-09-21T18:45:45.804Z,11.70
2018-09-21T19:01:20.604Z,11.07
2018-09-21T19:03:49.006Z,10.83
2018-09-21T19:06:17.309Z,11.27
2018-09-21T19:08:45.611Z,10.30
2018-09-21T19:11:13.852Z,10.03
2018-09-21T19:13:42.072Z,10.83
2018-09-21T19:16:10.332Z,9.80
2018-09-21T19:18:38.581Z,11.30
2018-09-21T19:21:06.964Z,12.30
2018-09-21T19:23:35.168Z,12.87
2018-09-21T19:26:04.186Z,12.80
2018-09-21T19:28:32.448Z,12.03
2018-09-21T19:31:00.687Z,11.50
2018-09-21T19:33:28.917Z,11.97
2018-09-21T19:35:57.130Z,12.10
2018-09-21T19:38:25.335Z,11.47
2018-09-21T19:40:53.610Z,11.40
2018-09-21T19:43:21.936Z,14.03
2018-09-21T19:45:50.236Z,12.27
2018-09-21T19:48:18.536Z,11.83
2018-09-21T19:50:46.744Z,12.07
2018-09-21T19:53:15.000Z,11.67
2018-09-21T19:55:43.223Z,10.03
2018-09-21T19:58:11.566Z,10.67
2018-09-21T20:00:40.198Z,9.57
2018-09-21T20:03:08.611Z,10.00
2018-09-21T20:05:37.059Z,7.10
2018-09-21T20:08:05.458Z,7.47
2018-09-21T20:10:33.700Z,7.00
2018-09-21T20:13:01.932Z,6.33
2018-09-21T20:15:30.176Z,6.97
2018-09-21T20:17:58.467Z,6.10
2018-09-21T20:20:26.719Z,6.47
2018-09-21T20:22:55.096Z,5.77
2018-09-21T20:25:23.490Z,6.73
2018-09-21T20:27:51.710Z,6.47
2018-09-21T20:30:25.418Z,7.80
2018-09-21T20:32:58.899Z,8.60
2018-09-21T20:35:27.246Z,8.10
2018-09-21T20:37:55.495Z,8.23
2018-09-21T20:40:23.731Z,5.87
2018-09-21T20:42:51.989Z,6.83
2018-09-21T20:45:22.269Z,5.83
2018-09-21T20:47:50.591Z,4.53
2018-09-21T20:50:18.854Z,4.30
2018-09-21T20:52:47.087Z,4.10
2018-09-21T20:55:15.339Z,4.20
2018-09-21T20:57:43.588Z,4.10
2018-09-21T21:00:11.933Z,5.23
2018-09-21T21:02:42.208Z,4.93
2018-09-21T21:05:10.536Z,5.17
2018-09-21T21:07:38.803Z,4.57
2018-09-21T21:10:07.079Z,2.70
2018-09-21T21:12:35.344Z,2.77
2018-09-21T21:15:03.627Z,3.27
2018-09-21T21:17:31.907Z,3.07
2018-09-21T21:20:00.148Z,2.70
2018-09-21T21:22:28.447Z,2.43
2018-09-21T21:24:56.881Z,3.00
2018-09-21T21:27:25.144Z,2.90
2018-09-21T21:29:53.371Z,2.70
2018-09-21T21:32:21.607Z,3.37
2018-09-21T21:34:49.866Z,3.20
2018-09-21T21:37:18.196Z,3.30
2018-09-21T21:39:46.434Z,3.10
2018-09-21T21:42:14.719Z,2.90
2018-09-21T21:44:43.007Z,2.73
2018-09-21T21:47:11.234Z,2.77
2018-09-21T21:49:39.512Z,3.10
2018-09-21T21:52:07.752Z,3.63
2018-09-21T21:57:23.982Z,3.10
2018-09-21T21:59:52.316Z,3.10
2018-09-21T22:02:20.551Z,3.43
2018-09-21T22:04:48.804Z,2.50
2018-09-21T22:07:17.049Z,2.90
2018-09-21T22:09:45.296Z,2.30
2018-09-21T22:12:18.798Z,2.40
2018-09-21T22:14:47.324Z,2.80
2018-09-21T22:17:15.591Z,2.87
2018-09-21T22:19:43.916Z,3.00
2018-09-21T22:22:12.313Z,2.90
2018-09-21T22:24:40.567Z,2.80
2018-09-21T22:27:08.810Z,2.80
2018-09-21T22:29:37.046Z,3.10
2018-09-21T22:32:05.309Z,2.70
2018-09-21T22:34:33.619Z,2.43
2018-09-21T22:37:01.860Z,2.87
2018-09-21T22:39:30.096Z,2.30
2018-09-21T22:41:58.351Z,2.30
2018-09-21T22:44:26.584Z,2.57
2018-09-21T22:46:54.928Z,2.23
2018-09-21T22:49:24.141Z,2.07
2018-09-21T22:51:52.425Z,2.57
2018-09-21T22:54:20.687Z,2.63
2018-09-21T22:56:48.939Z,2.60
2018-09-21T22:59:17.255Z,3.00
2018-09-21T23:01:45.595Z,2.90
2018-09-21T23:04:13.812Z,2.73
2018-09-21T23:06:42.043Z,3.67
2018-09-21T23:09:12.052Z,3.70
2018-09-21T23:11:40.945Z,3.40
2018-09-21T23:14:09.528Z,3.83
2018-09-21T23:16:37.854Z,3.60
2018-09-21T23:19:06.092Z,4.40
2018-09-21T23:21:34.435Z,4.30
2018-09-21T23:24:02.729Z,4.10
2018-09-21T23:26:31.142Z,3.93
2018-09-21T23:28:59.392Z,3.70
2018-09-21T23:31:27.651Z,4.10
2018-09-21T23:33:55.876Z,4.23
2018-09-21T23:36:24.155Z,3.67
2018-09-21T23:38:52.423Z,4.47
2018-09-21T23:41:20.641Z,4.10
2018-09-21T23:43:48.856Z,4.27
2018-09-21T23:46:17.224Z,4.47
2018-09-21T23:48:45.507Z,4.07
2018-09-21T23:51:13.723Z,4.90
2018-09-21T23:53:41.961Z,4.30
2018-09-21T23:56:10.198Z,4.70
2018-09-21T23:58:38.720Z,5.63
